首页
METAR-TAF:

METAR-TAF

机场 :

拉纳卡国际机场

拉纳卡, 塞浦路斯

纬度: 34-53N, 经度: 033-38E, 海拔: 2米

当前天气观测

该预报发布于35分钟前的12:00 UTC
风速17节,风向西南
温度 33°C
湿度 53%
气压 1005 hPa
能见度10公里或以上
少量云层高于2500英尺

METAR: LCLK 181200Z 22017KT 9999 FEW025 33/22 Q1005 NOSIG

时间: 15:35 (12:35 UTC)

预报

该预报发布于1小时和5分钟前的11:30 UTC
预报有效从18日的 12点(UTC)到 19日的 12点(UTC)
风速19节,风向西南
能见度10公里或以上
少量云层高于1500英尺
成为
从 18日的 16点(UTC)到 18日的 20点(UTC)
风速8节,风向西南
几率 30% :
短暂存在
从 19日的 00点(UTC)到 19日的 06点(UTC)
能見度: 5000
多云层高于700英尺
轻雾
成为
从 19日的 06点(UTC)到 19日的 09点(UTC)
风速10节,风向南转南东
成为
从 19日的 09点(UTC)到 19日的 12点(UTC)
风速17节,风向南转西南

TAF: LCLK 181130Z 1812/1912 22019KT 9999 FEW015 BECMG 1816/1820 23008KT PROB30 TEMPO 1900/1906 5000 BR BKN007 BECMG 1906/1909 16010KT BECMG 1909/1912 21017KT

超过4000个机场的气象观测和天气预报(METAR&TAF报告)。

可查询的气象台以黄色和红色小点在地图上表示。

将鼠标移到小点上方,可查看气象台名称。

然后点击查看天气观测和预报。

如需切换地图:点击带黑十字的绿色按钮放大地图;点击带横线的绿色按钮缩小地图;或者点击绿色箭头查看邻近地区的地图。


METAR-TAF: